Aviation Digital Data Service (ADDS)

Output produced by METARs form (0508 UTC 21 September 2017)
found at http://www.aviationweather.gov/adds/metars/
 
LIEA 210450Z VRB01KT CAVOK 09/08 Q1020
TAF LIEA 202300Z 2100/2124 VRB05KT 9999 SCT030 
     BECMG 2109/2111 24010KT 
     BECMG 2118/2121 03010KT
       
LIBA 210355Z 27009KT 9999 FEW030 12/10 Q1017 RMK FEW VIS MIN 9999 WIND THR11 27010KT WIND THR29 /////KT BLU
LIPA 210355Z 02005KT CAVOK 08/07 Q1017 RMK SKC VIS MIN 9999 WIND THR05 03005KT WIND THR23 02006KT A3006 BLU
TAF LIPA 202000Z 2021/2106 18005KT CAVOK
       
LIME 210450Z 01007KT CAVOK 10/05 Q1018 NOSIG
TAF LIME 202300Z 2100/2124 VRB05KT CAVOK
       
LIPE 210450Z 22005KT 190V250 CAVOK 11/07 Q1018
TAF LIPE 202300Z 2100/2124 VRB05KT CAVOK
       
LIPB 210450Z 00000KT CAVOK 04/03 Q1021
TAF LIPB 210439Z 2105/2124 VRB05KT 9999 FEW040
       
LIRN 210450Z 34003KT 300V030 CAVOK 13/07 Q1018 NOSIG
TAF LIRN 202300Z 2100/2124 04008KT 9999 SCT030 
     BECMG 2108/2110 24012KT 
     BECMG 2118/2120 VRB04KT
       
LIBR 210445Z 28017KT 9999 FEW015 SCT020 16/14 Q1016 NOSIG
TAF LIBR 202300Z 2100/2124 32020KT 9999 SCT015 
     TEMPO 2100/2106 32020G30KT 5000 TSRA FEW015CB BKN020 
     TEMPO 2106/2112 32025G35KT 
     TEMPO 2112/2118 32025G40KT
       
LICC 210450Z 24011KT CAVOK 16/09 Q1017
TAF LICC 202300Z 2100/2124 27010KT 9999 FEW040 
     BECMG 2109/2111 06010KT 
     BECMG 2118/2120 25007KT
       
LIPC 210455Z 00000KT CAVOK 08/08 Q1018
TAF LIPC 210200Z 2103/2112 27008KT CAVOK
       
LIRA 210450Z VRB01KT CAVOK 11/05 Q1019
TAF LIRA 202300Z 2100/2124 VRB05KT 9999 SCT030 
     BECMG 2108/2110 23012KT 
     BECMG 2118/2120 VRB05KT
       
LIED 210355Z 35003KT CAVOK 11/10 Q1019 RMK SKC VIS MIN 9999 WIND THR35 /////KT WIND THR17 /////KT BLU
TAF LIED 210200Z 2103/2112 33005KT CAVOK
       
LIEE 210450Z 33008KT CAVOK 12/10 Q1020
TAF LIEE 202300Z 2100/2124 33013KT 9999 SCT030 
     BECMG 2019/2021 VRB05KT 
     BECMG 2109/2111 15010KT
       
LIPY 210450Z 17004KT CAVOK 09/07 Q1018
TAF LIPY 202300Z 2100/2124 VRB05KT 9999 SCT040 
     BECMG 2110/2112 06010KT 
     BECMG 2118/2120 26008KT
       
LIRF 210450Z 05004KT CAVOK 10/06 Q1019 NOSIG
TAF LIRF 202300Z 2100/2206 04008KT CAVOK 
     BECMG 2108/2110 30013KT 
     BECMG 2118/2120 VRB04KT
       
LIMJ 210450Z 02006KT 350V050 9999 SCT028 15/10 Q1019
TAF LIMJ 202300Z 2100/2124 VRB05KT CAVOK
       
LIPL 210355Z /////KT CAVOK 10/08 Q1018 RMK SKC VIS MIN 9999 WIND THR31 03003KLT BLU
TAF LIPL 210200Z 2103/2112 06005KT CAVOK
       
LIBV 210355Z 30014KT 9999 SCT050 13/10 Q1016 RMK SCT VIS MIN 9999 WIND THR32 30015KT WIND THR14 30013KT BLU
TAF LIBV 210200Z 2103/2112 32015KT 9999 FEW025 
     BECMG 2104/2108 33018G28KT
       
LIRM 210455Z 03004KT CAVOK 11/10 Q1018
TAF LIRM 210200Z 2103/2112 04010KT 9999 FEW025 
     TEMPO 2103/2106 VRB02KT 5000 BR SCT010
       
LIRS 210455Z 04003KT CAVOK 11/09 Q1019
TAF LIRS 210200Z 2103/2112 05008KT 9999 FEW030
       
LIRG 210455Z 36003KT CAVOK 08/07 Q1019
LIPS 210355Z 35006KT CAVOK 12/10 Q1018 RMK SKC VIS MIN 9999 WIND THR26 00000KT WIND THR08 35005KT BLU
TAF LIPS 210200Z 2103/2112 05006KT CAVOK
       
LICA 210450Z 08003KT CAVOK 11/10 Q1018
TAF LICA 202300Z 2100/2124 VRB05KT 9999 FEW030 
     BECMG 2108/2110 27013KT 
     BECMG 2118/2120 VRB05KT
       
LICD 210450Z 33006KT 9999 FEW030 21/10 Q1021
TAF COR LICD 210307Z 2103/2124 35010KT CAVOK 
     BECMG 2109/2111 15013KT 
     BECMG 2118/2120 VRB05KT
       
LIRL 210455Z 34003KT CAVOK 12/10 Q1018
LIBN 210355Z 28010KT CAVOK 14/13 Q1015 RMK FEW FEW070 VIS MIN 9999 WIND THR14 28009KT WIND THR32 28011KT BLU
LIMZ 210458Z 24005KT CAVOK 05/03 Q1019
TAF LIMZ 202300Z 2100/2124 VRB05KT CAVOK
       
LIML 210450Z 00000KT CAVOK 10/07 Q1018 NOSIG
TAF LIML 202300Z 2100/2124 VRB05KT CAVOK
       
LIMC 210450Z 06003KT CAVOK 09/03 Q1020 NOSIG
TAF LIMC 202300Z 2100/2206 01007KT CAVOK
       
LIPO 210450Z 03006KT CAVOK 12/06 Q1018
TAF LIPO 202300Z 2100/2124 VRB05KT CAVOK
       
LIEO 210450Z 20006KT CAVOK 13/10 Q1020
TAF LIEO 202300Z 2100/2124 VRB05KT 9999 SCT030 
     BECMG 2108/2110 06012KT 
     BECMG 2118/2120 VRB05KT
       
LICJ 210450Z 34007KT 9999 SCT030 21/12 Q1019
TAF LICJ 202300Z 2100/2124 30010KT 9999 SCT030 
     BECMG 2109/2111 02012KT 
     BECMG 2118/2120 VRB06KT
       
LIBD 210450Z 29014KT 9999 SCT030 15/09 Q1016
TAF LIBD 202300Z 2100/2124 30015G25KT 9999 SCT040 
     BECMG 2118/2120 28008KT
       
LICG 210455Z 21002KT 9999 SCT017 17/10 Q1019
LIMP 210500Z 21004KT CAVOK 10/06 Q1019
TAF LIMP 202300Z 2100/2124 VRB05KT CAVOK
       
LIRQ 210450Z VRB01KT CAVOK 10/09 Q1019
TAF LIRQ 202300Z 2100/2124 VRB06KT 9999 SCT030
       
LIRZ 210500Z VRB03KT CAVOK 07/06 Q1019
TAF LIRZ 202300Z 2100/2124 VRB06KT 9999 SCT030
       
TAF LIBP 202300Z 2100/2124 VRB05KT 9999 SCT040 
     BECMG 2108/2110 02011KT 
     BECMG 2118/2120 VRB05KT
       
LIRP 210445Z 13002KT CAVOK 11/10 Q1019 NOSIG
TAF LIRP 202300Z 2100/2124 11006KT 9999 FEW080 
     PROB30 
     TEMPO 2102/2106 5000 BR 
     BECMG 2110/2112 27013KT 
     BECMG 2118/2120 09005KT
       
LIRE 210355Z 02007KT CAVOK 13/04 Q1018 RMK SKC VIS MIN 9999 WIND THR13 03006KT WIND THR31 02005KT BLU
TAF LIRE 210200Z 2103/2112 02012KT 9999 FEW040
       
LICR 210450Z 29008KT 260V330 9999 RA SCT030 18/14 Q1017
TAF LICR 210408Z 2105/2124 35015KT 9999 SCT030 
     BECMG 2118/2120 VRB05KT
       
LIPR 210445Z 23001KT CAVOK 09/08 Q1017
TAF LIPR 210200Z 2103/2112 27008KT CAVOK
       
LIPI 210355Z /////KT CAVOK 06/04 Q1018 RMK SKC VIS MIN 9999 WIND THR06 05002KT WIND THR24 02003KT BLU
LIPQ 210450Z 04003KT CAVOK 06/06 Q1018
TAF LIPQ 202300Z 2100/2124 VRB05KT 9999 FEW050
       
LICZ 210355Z 26008KT 9999 FEW022 15/10 Q1017 RMK FEW VIS MIN 9999 WIND THR28 26007KT WIND THR10 26008KT A3006 BLU
TAF LICZ 210200Z 2103/2112 29008KT 9999 SCT020
       
LIMF 210450Z VRB02KT CAVOK 08/02 Q1019
TAF LIMF 202300Z 2100/2124 VRB05KT CAVOK
       
LICT 210455Z 12005KT 9999 FEW025 16/11 Q1019
TAF LICT 210200Z 2103/2112 31008KT 9999 FEW025
       
LIPH 210450Z AUTO VRB01KT 9999 NCD 10/08 Q1018
TAF LIPH 202300Z 2100/2124 VRB05KT CAVOK
       
LIPZ 210450Z 36004KT 320V030 CAVOK 11/09 Q1018 NOSIG
TAF LIPZ 202300Z 2100/2206 03010KT CAVOK 
     BECMG 2106/2108 VRB05KT
       
TAF LIPX 202300Z 2100/2109 VRB05KT CAVOK
       
TAF LIRV 202000Z 2021/2106 03008KT 9999 FEW030